createdAt,value
2023-03-15T00:00:20.784Z,29.23
2023-03-15T00:02:52.084Z,25.13
2023-03-15T00:05:24.407Z,25.73
2023-03-15T00:07:59.377Z,26.10
2023-03-15T00:10:32.904Z,25.60
2023-03-15T00:13:06.282Z,26.83
2023-03-15T00:15:35.386Z,26.15
2023-03-15T00:18:07.687Z,26.73
2023-03-15T00:20:48.424Z,25.42
2023-03-15T00:23:27.821Z,26.27
2023-03-15T00:26:13.164Z,25.30
2023-03-15T00:28:57.689Z,26.42
2023-03-15T00:31:36.364Z,25.88
2023-03-15T00:34:07.466Z,26.02
2023-03-15T00:36:36.054Z,25.63
2023-03-15T00:39:15.769Z,27.55
2023-03-15T00:41:59.289Z,25.63
2023-03-15T00:44:29.297Z,26.08
2023-03-15T00:47:00.214Z,25.70
2023-03-15T00:49:31.786Z,28.00
2023-03-15T00:52:00.954Z,25.35
2023-03-15T00:54:35.491Z,26.50
2023-03-15T00:57:07.215Z,25.48
2023-03-15T00:59:53.386Z,24.13
2023-03-15T01:02:49.363Z,24.73
2023-03-15T01:05:30.407Z,28.77
2023-03-15T01:10:49.777Z,26.38
2023-03-15T01:13:28.239Z,27.58
2023-03-15T01:15:58.056Z,25.35
2023-03-15T01:18:32.417Z,23.52
2023-03-15T01:21:15.911Z,29.48
2023-03-15T01:23:55.425Z,24.77
2023-03-15T01:26:53.695Z,24.20
2023-03-15T01:29:32.574Z,25.67
2023-03-15T01:32:02.926Z,25.67
2023-03-15T01:34:52.200Z,23.30
2023-03-15T01:37:24.853Z,25.17
2023-03-15T01:39:55.215Z,25.00
2023-03-15T01:42:35.337Z,24.27
2023-03-15T01:45:05.401Z,24.63
2023-03-15T01:47:34.475Z,24.88
2023-03-15T01:50:11.862Z,23.70
2023-03-15T01:52:47.314Z,23.40
2023-03-15T01:55:24.565Z,26.33
2023-03-15T01:58:32.133Z,24.38
2023-03-15T02:01:09.381Z,24.27
2023-03-15T02:04:09.226Z,25.00
2023-03-15T02:07:00.962Z,25.52
2023-03-15T02:09:39.976Z,34.90
2023-03-15T02:12:24.625Z,27.65
2023-03-15T02:15:18.145Z,25.33
2023-03-15T02:17:54.645Z,24.20
2023-03-15T02:20:38.038Z,23.30
2023-03-15T02:23:14.225Z,26.95
2023-03-15T02:26:14.356Z,23.75
2023-03-15T02:31:38.705Z,22.25
2023-03-15T02:34:12.357Z,25.27
2023-03-15T02:36:49.187Z,22.70
2023-03-15T02:39:47.465Z,28.33
2023-03-15T02:42:40.847Z,22.42
2023-03-15T02:45:15.805Z,26.70
2023-03-15T02:48:03.179Z,23.33
2023-03-15T02:50:34.889Z,21.92
2023-03-15T02:55:57.935Z,22.40
2023-03-15T02:58:27.759Z,22.30
2023-03-15T03:00:59.090Z,21.92
2023-03-15T03:03:36.571Z,23.48
2023-03-15T03:06:13.993Z,27.33
2023-03-15T03:08:47.375Z,23.80
2023-03-15T03:11:23.351Z,23.88
2023-03-15T03:13:55.057Z,23.60
2023-03-15T03:16:39.780Z,23.95
2023-03-15T03:19:42.846Z,26.92
2023-03-15T03:22:13.662Z,27.02
2023-03-15T03:24:46.614Z,24.20
2023-03-15T03:27:17.215Z,26.42
2023-03-15T03:29:55.539Z,23.85
2023-03-15T03:32:37.177Z,23.70
2023-03-15T03:35:06.894Z,25.33
2023-03-15T03:37:46.143Z,23.08
2023-03-15T03:43:13.033Z,25.33
2023-03-15T03:45:51.289Z,22.85
2023-03-15T03:48:47.437Z,25.23
2023-03-15T03:51:16.422Z,29.38
2023-03-15T03:53:48.500Z,27.05
2023-03-15T03:56:24.463Z,25.48
2023-03-15T03:59:03.073Z,25.02
2023-03-15T04:04:33.536Z,29.83
2023-03-15T04:07:05.125Z,25.00
2023-03-15T04:09:40.314Z,24.35
2023-03-15T04:12:19.873Z,26.55
2023-03-15T04:14:51.381Z,24.27
2023-03-15T04:17:23.821Z,24.67
2023-03-15T04:23:38.957Z,24.10
2023-03-15T04:26:09.903Z,24.98
2023-03-15T04:29:00.097Z,22.50
2023-03-15T04:31:29.047Z,28.90
2023-03-15T04:34:06.348Z,23.52
2023-03-15T04:36:37.906Z,22.65
2023-03-15T04:39:35.948Z,25.20
2023-03-15T04:42:06.996Z,24.08
2023-03-15T04:44:36.710Z,23.05
2023-03-15T04:47:08.931Z,25.48
2023-03-15T04:49:48.750Z,23.05
2023-03-15T04:52:55.183Z,24.15
2023-03-15T04:55:34.354Z,23.48
2023-03-15T04:58:16.254Z,26.55
2023-03-15T05:00:47.743Z,22.83
2023-03-15T05:03:19.546Z,26.60
2023-03-15T05:05:51.521Z,24.55
2023-03-15T05:08:29.542Z,25.08
2023-03-15T05:10:58.619Z,24.60
2023-03-15T05:13:35.903Z,25.20
2023-03-15T05:16:17.098Z,24.92
2023-03-15T05:19:03.035Z,23.90
2023-03-15T05:21:42.559Z,21.92
2023-03-15T05:24:18.719Z,25.75
2023-03-15T05:27:13.684Z,21.88
2023-03-15T05:32:27.076Z,21.52
2023-03-15T05:35:00.213Z,20.63
2023-03-15T05:37:30.194Z,22.02
2023-03-15T05:40:10.846Z,21.50
2023-03-15T05:42:40.562Z,21.90
2023-03-15T05:45:13.356Z,24.95
2023-03-15T05:50:12.650Z,26.45
2023-03-15T05:52:41.330Z,21.60
2023-03-15T05:55:13.348Z,24.42
2023-03-15T05:57:43.186Z,21.30
2023-03-15T06:00:16.649Z,27.30
2023-03-15T06:02:51.166Z,22.13
2023-03-15T06:05:21.038Z,25.88
2023-03-15T06:10:36.745Z,23.15
2023-03-15T06:13:05.683Z,23.77
2023-03-15T06:15:36.691Z,21.00
2023-03-15T06:18:15.295Z,54.08
2023-03-15T06:21:36.686Z,21.25
2023-03-15T06:24:13.237Z,25.33
2023-03-15T06:26:49.801Z,21.52
2023-03-15T06:29:27.345Z,49.45
2023-03-15T06:31:58.555Z,21.33
2023-03-15T06:34:27.322Z,21.90
2023-03-15T06:36:59.162Z,21.88
2023-03-15T06:39:28.844Z,386.43
2023-03-15T06:42:08.958Z,22.20
2023-03-15T06:44:38.985Z,21.85
2023-03-15T06:47:13.615Z,25.02
2023-03-15T06:49:51.534Z,22.25
2023-03-15T06:52:20.913Z,24.52
2023-03-15T06:54:51.778Z,21.85
2023-03-15T06:57:25.333Z,24.23
2023-03-15T06:59:55.468Z,22.08
2023-03-15T07:02:24.281Z,22.00
2023-03-15T07:05:07.266Z,23.17
2023-03-15T07:07:38.616Z,22.40
2023-03-15T07:10:11.650Z,25.83
2023-03-15T07:12:43.991Z,22.38
2023-03-15T07:15:17.513Z,24.73
2023-03-15T07:17:49.944Z,23.15
2023-03-15T07:20:23.291Z,23.90
2023-03-15T07:22:52.630Z,22.77
2023-03-15T07:25:26.168Z,22.63
2023-03-15T07:28:08.281Z,24.48
2023-03-15T07:30:38.930Z,22.02
2023-03-15T07:33:11.802Z,25.30
2023-03-15T07:35:50.945Z,22.98
2023-03-15T07:38:23.609Z,26.30
2023-03-15T07:40:54.859Z,80.90
2023-03-15T07:43:27.429Z,22.30
2023-03-15T07:45:57.597Z,22.20
2023-03-15T07:48:29.666Z,23.38
2023-03-15T07:51:01.481Z,23.58
2023-03-15T07:53:33.496Z,23.08
2023-03-15T07:56:03.790Z,23.25
2023-03-15T07:58:37.407Z,23.88
2023-03-15T08:01:16.140Z,25.95
2023-03-15T08:03:46.786Z,25.17
2023-03-15T08:06:17.993Z,26.45
2023-03-15T08:08:50.156Z,23.67
2023-03-15T08:11:22.518Z,26.15
2023-03-15T08:14:09.933Z,23.20
2023-03-15T08:16:41.830Z,24.15
2023-03-15T08:19:36.110Z,26.30
2023-03-15T08:22:06.647Z,26.83
2023-03-15T08:24:35.628Z,28.10
2023-03-15T08:27:29.606Z,238.77
2023-03-15T08:30:06.032Z,25.63
2023-03-15T08:32:57.992Z,326.75
2023-03-15T08:35:31.157Z,25.98
2023-03-15T08:38:03.651Z,26.85
2023-03-15T08:40:32.799Z,28.80
2023-03-15T08:43:02.486Z,31.25
2023-03-15T08:48:29.745Z,30.90
2023-03-15T08:51:04.370Z,31.58
2023-03-15T08:53:34.494Z,36.65
2023-03-15T08:56:05.053Z,30.55
2023-03-15T08:58:38.204Z,34.92
2023-03-15T09:01:08.895Z,32.03
2023-03-15T09:03:38.888Z,28.98
2023-03-15T09:06:11.242Z,37.92
2023-03-15T09:08:42.081Z,514.47
2023-03-15T09:13:56.383Z,32.03
2023-03-15T09:16:28.009Z,33.17
2023-03-15T09:18:59.386Z,34.58
2023-03-15T09:21:37.018Z,35.15
2023-03-15T09:24:06.980Z,39.70
2023-03-15T09:26:38.155Z,44.20
2023-03-15T09:29:07.963Z,35.78
2023-03-15T09:31:40.391Z,33.47
2023-03-15T09:34:11.377Z,35.35
2023-03-15T09:36:42.619Z,31.20
2023-03-15T09:39:12.396Z,34.70
2023-03-15T09:41:44.807Z,32.05
2023-03-15T09:44:51.241Z,38.40
2023-03-15T09:47:40.969Z,33.88
2023-03-15T09:50:21.235Z,34.33
2023-03-15T09:53:04.949Z,30.20
2023-03-15T09:55:39.881Z,30.58
2023-03-15T09:58:15.762Z,36.03
2023-03-15T10:00:52.757Z,30.80
2023-03-15T10:03:38.037Z,30.77
2023-03-15T10:06:14.761Z,32.78
2023-03-15T10:08:44.848Z,32.22
2023-03-15T10:11:25.077Z,36.67
2023-03-15T10:14:21.075Z,34.42
2023-03-15T10:16:53.151Z,34.78
2023-03-15T10:19:39.670Z,34.72
2023-03-15T10:22:24.247Z,37.25
2023-03-15T10:24:58.970Z,29.85
2023-03-15T10:27:38.475Z,37.70
2023-03-15T10:30:27.736Z,31.75
2023-03-15T10:33:01.558Z,39.95
2023-03-15T10:35:39.104Z,31.35
2023-03-15T10:38:19.113Z,34.85
2023-03-15T10:41:17.842Z,81.43
2023-03-15T10:44:01.236Z,42.25
2023-03-15T10:46:35.756Z,33.83
2023-03-15T10:49:12.219Z,32.63
2023-03-15T10:51:45.742Z,32.95
2023-03-15T10:54:18.871Z,35.17
2023-03-15T10:56:51.170Z,34.53
2023-03-15T10:59:26.659Z,36.58
2023-03-15T11:02:08.713Z,37.75
2023-03-15T11:04:47.382Z,1999.90
2023-03-15T11:07:21.471Z,38.08
2023-03-15T11:09:57.356Z,1999.90
2023-03-15T11:12:32.231Z,1999.90
2023-03-15T11:15:06.035Z,1999.90
2023-03-15T11:17:40.149Z,1999.90
2023-03-15T11:20:27.410Z,1999.90
2023-03-15T11:23:03.407Z,29.88
2023-03-15T11:25:37.317Z,28.48
2023-03-15T11:28:08.814Z,1999.90
2023-03-15T11:30:52.303Z,1999.90
2023-03-15T11:33:36.932Z,1509.68
2023-03-15T11:36:11.178Z,40.47
2023-03-15T11:38:45.842Z,33.00
2023-03-15T11:41:29.348Z,31.33
2023-03-15T11:44:07.896Z,32.80
2023-03-15T11:46:48.748Z,33.08
2023-03-15T11:49:25.807Z,34.45
2023-03-15T11:51:57.916Z,34.58
2023-03-15T11:54:32.310Z,32.47
2023-03-15T11:57:07.763Z,33.65
2023-03-15T11:59:40.340Z,31.05
2023-03-15T12:05:15.913Z,33.05
2023-03-15T12:08:19.681Z,32.45
2023-03-15T12:10:53.634Z,33.72
2023-03-15T12:13:28.454Z,32.38
2023-03-15T12:15:59.876Z,32.75
2023-03-15T12:18:40.583Z,31.20
2023-03-15T12:21:23.177Z,34.80
2023-03-15T12:26:49.744Z,29.38
2023-03-15T12:29:26.313Z,29.35
2023-03-15T12:32:01.470Z,27.60
2023-03-15T12:34:51.257Z,29.25
2023-03-15T12:37:23.559Z,31.55
2023-03-15T12:40:07.828Z,32.08
2023-03-15T12:43:13.849Z,34.08
2023-03-15T12:46:02.411Z,30.05
2023-03-15T12:48:33.681Z,30.17
2023-03-15T12:51:38.669Z,29.65
2023-03-15T12:54:15.109Z,35.00
2023-03-15T12:56:57.718Z,34.08
2023-03-15T12:59:52.898Z,36.95
2023-03-15T13:02:44.037Z,31.17
2023-03-15T13:05:25.477Z,35.20
2023-03-15T13:08:08.218Z,33.70
2023-03-15T13:11:01.988Z,30.02
2023-03-15T13:13:47.682Z,32.03
2023-03-15T13:16:28.325Z,38.40
2023-03-15T13:19:10.579Z,29.17
2023-03-15T13:21:54.030Z,32.63
2023-03-15T13:24:29.649Z,33.50
2023-03-15T13:27:13.309Z,32.00
2023-03-15T13:29:45.382Z,31.98
2023-03-15T13:32:19.842Z,37.55
2023-03-15T13:34:52.936Z,31.10
2023-03-15T13:37:26.515Z,31.35
2023-03-15T13:39:58.949Z,31.88
2023-03-15T13:42:29.451Z,32.00
2023-03-15T13:45:17.109Z,30.73
2023-03-15T13:47:48.352Z,39.17
2023-03-15T13:50:20.052Z,34.70
2023-03-15T13:52:50.522Z,30.98
2023-03-15T13:55:33.882Z,33.83
2023-03-15T13:58:11.064Z,27.05
2023-03-15T14:00:41.973Z,37.50
2023-03-15T14:03:24.214Z,39.38
2023-03-15T14:05:56.473Z,31.98
2023-03-15T14:08:32.371Z,31.65
2023-03-15T14:11:10.443Z,36.00
2023-03-15T14:13:51.634Z,31.40
2023-03-15T14:16:50.508Z,35.05
2023-03-15T14:19:34.361Z,32.58
2023-03-15T14:22:19.431Z,38.05
2023-03-15T14:24:53.040Z,33.90
2023-03-15T14:27:27.534Z,31.48
2023-03-15T14:29:59.238Z,32.50
2023-03-15T14:32:31.991Z,33.53
2023-03-15T14:35:08.144Z,29.90
2023-03-15T14:37:43.273Z,33.42
2023-03-15T14:40:22.033Z,33.10
2023-03-15T14:42:56.050Z,30.75
2023-03-15T14:45:30.174Z,29.77
2023-03-15T14:48:06.546Z,31.35
2023-03-15T14:50:41.504Z,29.77
2023-03-15T14:53:22.386Z,34.22
2023-03-15T14:55:53.891Z,29.95
2023-03-15T14:58:25.008Z,31.85
2023-03-15T15:00:59.729Z,30.83
2023-03-15T15:03:36.154Z,30.92
2023-03-15T15:06:08.761Z,35.50
2023-03-15T15:11:12.169Z,35.17
2023-03-15T15:13:49.177Z,32.30
2023-03-15T15:16:19.555Z,34.15
2023-03-15T15:18:50.075Z,32.58
2023-03-15T15:21:25.524Z,35.90
2023-03-15T15:23:59.170Z,41.10
2023-03-15T15:26:37.433Z,37.33
2023-03-15T15:29:15.597Z,35.42
2023-03-15T15:31:49.751Z,35.85
2023-03-15T15:34:20.766Z,34.75
2023-03-15T15:36:58.183Z,31.98
2023-03-15T15:39:31.975Z,33.05
2023-03-15T15:42:01.172Z,35.50
2023-03-15T15:44:30.170Z,33.70
2023-03-15T15:47:04.353Z,34.55
2023-03-15T15:49:34.252Z,33.80
2023-03-15T15:52:06.752Z,34.58
2023-03-15T15:54:36.842Z,31.13
2023-03-15T15:57:14.612Z,38.60
2023-03-15T15:59:45.749Z,31.00
2023-03-15T16:02:23.436Z,39.22
2023-03-15T16:04:55.130Z,31.40
2023-03-15T16:07:28.711Z,30.23
2023-03-15T16:10:01.815Z,30.65
2023-03-15T16:12:33.522Z,30.63
2023-03-15T16:15:03.207Z,30.13
2023-03-15T16:17:37.504Z,34.78
2023-03-15T16:20:12.868Z,35.95
2023-03-15T16:22:51.076Z,34.25
2023-03-15T16:25:27.842Z,35.22
2023-03-15T16:27:59.249Z,32.50
2023-03-15T16:30:35.537Z,29.90
2023-03-15T16:33:07.493Z,78.20
2023-03-15T16:35:50.532Z,40.95
2023-03-15T16:38:28.889Z,151.93
2023-03-15T16:41:04.257Z,33.63
2023-03-15T16:43:38.565Z,32.13
2023-03-15T16:46:16.387Z,38.70
2023-03-15T16:48:49.505Z,42.55
2023-03-15T16:51:24.665Z,37.65
2023-03-15T16:54:12.583Z,34.28
2023-03-15T16:56:52.150Z,32.83
2023-03-15T16:59:24.851Z,33.03
2023-03-15T17:01:55.423Z,35.35
2023-03-15T17:04:27.079Z,33.97
2023-03-15T17:06:58.386Z,34.00
2023-03-15T17:09:31.660Z,35.17
2023-03-15T17:12:02.538Z,32.35
2023-03-15T17:14:36.542Z,31.90
2023-03-15T17:17:11.532Z,36.78
2023-03-15T17:19:46.360Z,41.28
2023-03-15T17:22:18.463Z,39.95
2023-03-15T17:25:03.450Z,35.65
2023-03-15T17:27:46.773Z,34.90
2023-03-15T17:30:36.865Z,41.38
2023-03-15T17:33:33.413Z,36.03
2023-03-15T17:36:13.955Z,38.08
2023-03-15T17:39:10.658Z,38.30
2023-03-15T17:42:36.418Z,49.00
2023-03-15T17:45:29.455Z,37.58
2023-03-15T17:48:25.123Z,38.92
2023-03-15T17:51:07.189Z,35.13
2023-03-15T17:56:47.212Z,33.63
2023-03-15T17:59:41.727Z,37.92
2023-03-15T18:02:23.437Z,38.10
2023-03-15T18:05:02.147Z,44.25
2023-03-15T18:07:58.190Z,34.17
2023-03-15T18:10:50.235Z,34.28
2023-03-15T18:13:36.453Z,37.38
2023-03-15T18:16:26.137Z,37.15
2023-03-15T18:19:17.015Z,35.47
2023-03-15T18:22:06.366Z,174.13
2023-03-15T18:24:50.855Z,34.70
2023-03-15T18:27:37.291Z,41.47
2023-03-15T18:30:30.428Z,38.15
2023-03-15T18:33:34.046Z,36.65
2023-03-15T18:36:24.523Z,36.10
2023-03-15T18:39:22.209Z,34.72
2023-03-15T18:42:22.726Z,89.88
2023-03-15T18:49:11.432Z,34.33
2023-03-15T18:52:00.491Z,35.08
2023-03-15T18:54:51.440Z,35.33
2023-03-15T18:57:40.079Z,33.30
2023-03-15T19:00:41.019Z,38.92
2023-03-15T19:03:14.159Z,37.72
2023-03-15T19:06:33.946Z,33.28
2023-03-15T19:09:17.971Z,35.13
2023-03-15T19:11:51.341Z,35.95
2023-03-15T19:14:33.775Z,34.55
2023-03-15T19:17:14.478Z,35.83
2023-03-15T19:20:02.656Z,34.80
2023-03-15T19:22:42.335Z,35.55
2023-03-15T19:25:16.769Z,36.42
2023-03-15T19:27:53.357Z,30.83
2023-03-15T19:30:53.269Z,31.75
2023-03-15T19:33:55.672Z,32.17
2023-03-15T19:36:26.620Z,32.35
2023-03-15T19:39:07.760Z,31.15
2023-03-15T19:41:42.422Z,43.42
2023-03-15T19:44:15.453Z,34.78
2023-03-15T19:46:51.517Z,32.05
2023-03-15T19:49:31.514Z,32.63
2023-03-15T19:52:16.512Z,35.35
2023-03-15T19:54:52.841Z,30.58
2023-03-15T19:57:26.008Z,30.23
2023-03-15T19:59:59.324Z,29.30
2023-03-15T20:02:33.379Z,30.77
2023-03-15T20:05:12.355Z,28.88
2023-03-15T20:07:53.505Z,29.67
2023-03-15T20:10:30.096Z,29.85
2023-03-15T20:13:03.951Z,30.15
2023-03-15T20:15:37.129Z,28.17
2023-03-15T20:18:16.587Z,32.47
2023-03-15T20:21:01.324Z,28.35
2023-03-15T20:26:38.103Z,28.60
2023-03-15T20:29:15.592Z,32.47
2023-03-15T20:32:09.916Z,28.52
2023-03-15T20:34:46.753Z,28.67
2023-03-15T20:37:27.347Z,32.35
2023-03-15T20:40:02.661Z,37.92
2023-03-15T20:42:37.009Z,29.05
2023-03-15T20:45:12.673Z,31.10
2023-03-15T20:48:09.201Z,29.63
2023-03-15T20:50:58.095Z,29.75
2023-03-15T20:53:44.208Z,31.83
2023-03-15T20:56:25.913Z,29.25
2023-03-15T20:59:25.060Z,28.77
2023-03-15T21:02:17.625Z,29.83
2023-03-15T21:05:14.546Z,27.70
2023-03-15T21:07:45.807Z,28.27
2023-03-15T21:10:49.754Z,32.60
2023-03-15T21:13:27.569Z,29.08
2023-03-15T21:16:10.735Z,29.58
2023-03-15T21:18:53.159Z,31.33
2023-03-15T21:21:25.379Z,30.65
2023-03-15T21:24:09.651Z,31.42
2023-03-15T21:26:45.249Z,29.08
2023-03-15T21:29:17.585Z,33.30
2023-03-15T21:31:59.448Z,30.10
2023-03-15T21:34:30.697Z,29.38
2023-03-15T21:37:02.090Z,30.25
2023-03-15T21:40:21.550Z,29.40
2023-03-15T21:42:58.945Z,29.25
2023-03-15T21:45:54.024Z,29.55
2023-03-15T21:48:37.504Z,28.55
2023-03-15T21:51:35.514Z,30.77
2023-03-15T21:54:09.486Z,29.40
2023-03-15T21:56:47.889Z,28.08
2023-03-15T21:59:28.286Z,27.80
2023-03-15T22:02:00.069Z,27.98
2023-03-15T22:07:07.998Z,29.42
2023-03-15T22:09:43.365Z,29.67
2023-03-15T22:12:28.213Z,33.42
2023-03-15T22:15:17.718Z,32.83
2023-03-15T22:17:59.073Z,27.98
2023-03-15T22:20:37.949Z,28.02
2023-03-15T22:23:09.765Z,29.70
2023-03-15T22:25:40.684Z,28.35
2023-03-15T22:28:18.006Z,31.23
2023-03-15T22:30:51.943Z,27.33
2023-03-15T22:33:23.243Z,29.48
2023-03-15T22:36:06.480Z,27.73
2023-03-15T22:38:38.999Z,28.95
2023-03-15T22:41:21.779Z,30.40
2023-03-15T22:43:59.207Z,28.52
2023-03-15T22:46:36.063Z,33.30
2023-03-15T22:49:07.389Z,29.73
2023-03-15T22:51:54.925Z,27.58
2023-03-15T22:54:49.308Z,27.37
2023-03-15T22:57:32.643Z,30.95
2023-03-15T23:03:41.951Z,29.45
2023-03-15T23:06:28.808Z,30.73
2023-03-15T23:09:46.483Z,27.05
2023-03-15T23:12:39.662Z,30.48
2023-03-15T23:15:24.335Z,30.77
2023-03-15T23:18:13.321Z,27.90
2023-03-15T23:20:58.065Z,28.00
2023-03-15T23:23:50.489Z,27.85
2023-03-15T23:27:05.392Z,29.98
2023-03-15T23:30:06.345Z,27.33
2023-03-15T23:32:50.594Z,29.75
2023-03-15T23:35:42.086Z,32.63
2023-03-15T23:38:41.695Z,33.22
2023-03-15T23:41:33.063Z,32.42
2023-03-15T23:45:01.452Z,30.13
2023-03-15T23:48:11.058Z,28.65
2023-03-15T23:51:14.461Z,29.33
2023-03-15T23:54:01.607Z,29.00
2023-03-15T23:56:51.768Z,29.13
